sensor_id;sensor_type;location;lat;lon;timestamp;P1;durP1;ratioP1;P2;durP2;ratioP2
21239;SDS011;10778;48.962;9.018;2022-11-14T00:01:51;14.63;;;10.35;;
21239;SDS011;10778;48.962;9.018;2022-11-14T00:04:36;13.68;;;10.13;;
21239;SDS011;10778;48.962;9.018;2022-11-14T00:07:20;13.07;;;9.75;;
21239;SDS011;10778;48.962;9.018;2022-11-14T00:10:05;13.13;;;10.32;;
21239;SDS011;10778;48.962;9.018;2022-11-14T00:12:50;13.93;;;10.27;;
21239;SDS011;10778;48.962;9.018;2022-11-14T00:15:34;15.98;;;10.68;;
21239;SDS011;10778;48.962;9.018;2022-11-14T00:18:19;16.75;;;11.25;;
21239;SDS011;10778;48.962;9.018;2022-11-14T00:21:03;15.80;;;10.90;;
21239;SDS011;10778;48.962;9.018;2022-11-14T00:23:48;14.40;;;10.40;;
21239;SDS011;10778;48.962;9.018;2022-11-14T00:26:32;13.27;;;9.82;;
21239;SDS011;10778;48.962;9.018;2022-11-14T00:29:17;16.45;;;11.73;;
21239;SDS011;10778;48.962;9.018;2022-11-14T00:32:01;15.57;;;11.30;;
21239;SDS011;10778;48.962;9.018;2022-11-14T00:34:46;15.20;;;11.38;;
21239;SDS011;10778;48.962;9.018;2022-11-14T00:37:31;17.67;;;12.45;;
21239;SDS011;10778;48.962;9.018;2022-11-14T00:40:16;16.85;;;11.73;;
21239;SDS011;10778;48.962;9.018;2022-11-14T00:43:00;17.35;;;12.48;;
21239;SDS011;10778;48.962;9.018;2022-11-14T00:45:45;16.05;;;11.93;;
21239;SDS011;10778;48.962;9.018;2022-11-14T00:48:30;16.85;;;12.45;;
21239;SDS011;10778;48.962;9.018;2022-11-14T00:51:15;17.75;;;12.85;;
21239;SDS011;10778;48.962;9.018;2022-11-14T00:53:59;18.88;;;13.95;;
21239;SDS011;10778;48.962;9.018;2022-11-14T00:56:44;19.92;;;13.98;;
21239;SDS011;10778;48.962;9.018;2022-11-14T00:59:28;20.35;;;15.18;;
21239;SDS011;10778;48.962;9.018;2022-11-14T01:02:13;20.90;;;14.77;;
21239;SDS011;10778;48.962;9.018;2022-11-14T01:04:57;20.38;;;15.07;;
21239;SDS011;10778;48.962;9.018;2022-11-14T01:07:41;21.35;;;14.73;;
21239;SDS011;10778;48.962;9.018;2022-11-14T01:10:26;20.55;;;14.75;;
21239;SDS011;10778;48.962;9.018;2022-11-14T01:13:11;20.23;;;14.90;;
21239;SDS011;10778;48.962;9.018;2022-11-14T01:15:58;22.67;;;15.57;;
21239;SDS011;10778;48.962;9.018;2022-11-14T01:18:44;21.50;;;15.07;;
21239;SDS011;10778;48.962;9.018;2022-11-14T01:21:28;22.08;;;14.38;;
21239;SDS011;10778;48.962;9.018;2022-11-14T01:24:13;20.90;;;15.13;;
21239;SDS011;10778;48.962;9.018;2022-11-14T01:26:58;19.33;;;14.35;;
21239;SDS011;10778;48.962;9.018;2022-11-14T01:29:43;22.58;;;14.73;;
21239;SDS011;10778;48.962;9.018;2022-11-14T01:32:27;20.20;;;14.25;;
21239;SDS011;10778;48.962;9.018;2022-11-14T01:35:12;21.38;;;14.70;;
21239;SDS011;10778;48.962;9.018;2022-11-14T01:37:56;20.73;;;14.75;;
21239;SDS011;10778;48.962;9.018;2022-11-14T01:40:41;19.65;;;14.65;;
21239;SDS011;10778;48.962;9.018;2022-11-14T01:43:28;21.02;;;14.43;;
21239;SDS011;10778;48.962;9.018;2022-11-14T01:49:02;22.25;;;15.02;;
21239;SDS011;10778;48.962;9.018;2022-11-14T01:51:56;20.70;;;15.10;;
21239;SDS011;10778;48.962;9.018;2022-11-14T01:54:56;19.63;;;14.35;;
21239;SDS011;10778;48.962;9.018;2022-11-14T01:57:45;19.90;;;14.45;;
21239;SDS011;10778;48.962;9.018;2022-11-14T02:00:31;19.85;;;14.60;;
21239;SDS011;10778;48.962;9.018;2022-11-14T02:03:16;25.17;;;16.83;;
21239;SDS011;10778;48.962;9.018;2022-11-14T02:06:02;22.55;;;16.92;;
21239;SDS011;10778;48.962;9.018;2022-11-14T02:08:48;28.08;;;17.83;;
21239;SDS011;10778;48.962;9.018;2022-11-14T02:11:35;24.73;;;17.52;;
21239;SDS011;10778;48.962;9.018;2022-11-14T02:14:23;26.02;;;18.00;;
21239;SDS011;10778;48.962;9.018;2022-11-14T02:17:08;24.00;;;17.10;;
21239;SDS011;10778;48.962;9.018;2022-11-14T02:19:54;22.63;;;16.55;;
21239;SDS011;10778;48.962;9.018;2022-11-14T02:22:59;25.45;;;17.25;;
21239;SDS011;10778;48.962;9.018;2022-11-14T02:25:44;26.88;;;18.33;;
21239;SDS011;10778;48.962;9.018;2022-11-14T02:28:28;26.20;;;17.38;;
21239;SDS011;10778;48.962;9.018;2022-11-14T02:31:13;26.05;;;18.85;;
21239;SDS011;10778;48.962;9.018;2022-11-14T02:33:58;27.42;;;18.15;;
21239;SDS011;10778;48.962;9.018;2022-11-14T02:36:44;24.90;;;17.42;;
21239;SDS011;10778;48.962;9.018;2022-11-14T02:39:28;27.38;;;17.75;;
21239;SDS011;10778;48.962;9.018;2022-11-14T02:42:13;24.73;;;16.95;;
21239;SDS011;10778;48.962;9.018;2022-11-14T02:44:58;24.88;;;17.42;;
21239;SDS011;10778;48.962;9.018;2022-11-14T02:47:42;25.38;;;17.92;;
21239;SDS011;10778;48.962;9.018;2022-11-14T02:50:27;25.20;;;17.85;;
21239;SDS011;10778;48.962;9.018;2022-11-14T02:53:12;24.58;;;16.65;;
21239;SDS011;10778;48.962;9.018;2022-11-14T02:55:56;24.15;;;17.40;;
21239;SDS011;10778;48.962;9.018;2022-11-14T02:58:41;25.90;;;17.35;;
21239;SDS011;10778;48.962;9.018;2022-11-14T03:01:25;23.80;;;16.45;;
21239;SDS011;10778;48.962;9.018;2022-11-14T03:04:10;26.38;;;17.75;;
21239;SDS011;10778;48.962;9.018;2022-11-14T03:06:54;25.55;;;17.20;;
21239;SDS011;10778;48.962;9.018;2022-11-14T03:09:38;23.83;;;17.35;;
21239;SDS011;10778;48.962;9.018;2022-11-14T03:12:23;24.00;;;17.25;;
21239;SDS011;10778;48.962;9.018;2022-11-14T03:15:08;23.80;;;16.88;;
21239;SDS011;10778;48.962;9.018;2022-11-14T03:17:53;23.75;;;17.00;;
21239;SDS011;10778;48.962;9.018;2022-11-14T03:20:38;23.25;;;16.05;;
21239;SDS011;10778;48.962;9.018;2022-11-14T03:23:22;22.17;;;16.10;;
21239;SDS011;10778;48.962;9.018;2022-11-14T03:26:08;23.15;;;15.45;;
21239;SDS011;10778;48.962;9.018;2022-11-14T03:28:54;21.58;;;15.68;;
21239;SDS011;10778;48.962;9.018;2022-11-14T03:31:38;21.42;;;15.43;;
21239;SDS011;10778;48.962;9.018;2022-11-14T03:34:23;20.45;;;14.50;;
21239;SDS011;10778;48.962;9.018;2022-11-14T03:37:07;23.23;;;16.08;;
21239;SDS011;10778;48.962;9.018;2022-11-14T03:39:52;21.20;;;14.45;;
21239;SDS011;10778;48.962;9.018;2022-11-14T03:42:37;21.58;;;15.55;;
21239;SDS011;10778;48.962;9.018;2022-11-14T03:45:21;22.33;;;14.43;;
21239;SDS011;10778;48.962;9.018;2022-11-14T03:48:06;19.17;;;14.10;;
21239;SDS011;10778;48.962;9.018;2022-11-14T03:50:51;20.25;;;14.07;;
21239;SDS011;10778;48.962;9.018;2022-11-14T03:53:36;19.17;;;14.25;;
21239;SDS011;10778;48.962;9.018;2022-11-14T03:56:20;20.00;;;14.52;;
21239;SDS011;10778;48.962;9.018;2022-11-14T03:59:04;18.23;;;14.13;;
21239;SDS011;10778;48.962;9.018;2022-11-14T04:01:49;18.83;;;14.05;;
21239;SDS011;10778;48.962;9.018;2022-11-14T04:04:34;20.05;;;14.35;;
21239;SDS011;10778;48.962;9.018;2022-11-14T04:07:19;20.83;;;15.23;;
21239;SDS011;10778;48.962;9.018;2022-11-14T04:10:03;21.55;;;15.30;;
21239;SDS011;10778;48.962;9.018;2022-11-14T04:12:49;24.08;;;15.77;;
21239;SDS011;10778;48.962;9.018;2022-11-14T04:15:35;24.25;;;16.40;;
21239;SDS011;10778;48.962;9.018;2022-11-14T04:18:19;24.50;;;16.98;;
21239;SDS011;10778;48.962;9.018;2022-11-14T04:21:04;24.55;;;16.92;;
21239;SDS011;10778;48.962;9.018;2022-11-14T04:23:48;26.73;;;16.75;;
21239;SDS011;10778;48.962;9.018;2022-11-14T04:26:33;25.92;;;17.45;;
21239;SDS011;10778;48.962;9.018;2022-11-14T04:29:17;28.27;;;17.85;;
21239;SDS011;10778;48.962;9.018;2022-11-14T04:32:02;28.95;;;17.90;;
21239;SDS011;10778;48.962;9.018;2022-11-14T04:34:46;27.08;;;17.60;;
21239;SDS011;10778;48.962;9.018;2022-11-14T04:37:31;27.98;;;18.20;;
21239;SDS011;10778;48.962;9.018;2022-11-14T04:40:15;26.55;;;17.52;;
21239;SDS011;10778;48.962;9.018;2022-11-14T04:43:00;25.10;;;16.75;;
21239;SDS011;10778;48.962;9.018;2022-11-14T04:45:45;25.40;;;16.92;;
21239;SDS011;10778;48.962;9.018;2022-11-14T04:48:30;25.55;;;17.10;;
21239;SDS011;10778;48.962;9.018;2022-11-14T04:51:14;24.13;;;15.50;;
21239;SDS011;10778;48.962;9.018;2022-11-14T04:53:59;23.77;;;15.57;;
21239;SDS011;10778;48.962;9.018;2022-11-14T04:56:43;20.90;;;14.93;;
21239;SDS011;10778;48.962;9.018;2022-11-14T04:59:28;22.00;;;15.07;;
21239;SDS011;10778;48.962;9.018;2022-11-14T05:02:12;21.95;;;14.55;;
21239;SDS011;10778;48.962;9.018;2022-11-14T05:04:56;21.63;;;14.90;;
21239;SDS011;10778;48.962;9.018;2022-11-14T05:07:41;19.13;;;13.57;;
21239;SDS011;10778;48.962;9.018;2022-11-14T05:10:25;21.38;;;14.63;;
21239;SDS011;10778;48.962;9.018;2022-11-14T05:13:10;22.83;;;15.63;;
21239;SDS011;10778;48.962;9.018;2022-11-14T05:15:59;21.58;;;14.90;;
21239;SDS011;10778;48.962;9.018;2022-11-14T05:18:44;29.88;;;19.25;;
21239;SDS011;10778;48.962;9.018;2022-11-14T05:21:29;24.50;;;16.50;;
21239;SDS011;10778;48.962;9.018;2022-11-14T05:24:13;24.55;;;16.45;;
21239;SDS011;10778;48.962;9.018;2022-11-14T05:26:58;21.05;;;14.80;;
21239;SDS011;10778;48.962;9.018;2022-11-14T05:29:42;22.00;;;15.15;;
21239;SDS011;10778;48.962;9.018;2022-11-14T05:32:27;34.92;;;19.17;;
21239;SDS011;10778;48.962;9.018;2022-11-14T05:35:11;36.22;;;20.55;;
21239;SDS011;10778;48.962;9.018;2022-11-14T05:37:55;25.60;;;16.55;;
21239;SDS011;10778;48.962;9.018;2022-11-14T05:40:40;21.83;;;14.90;;
21239;SDS011;10778;48.962;9.018;2022-11-14T05:43:24;19.02;;;13.02;;
21239;SDS011;10778;48.962;9.018;2022-11-14T05:46:12;19.00;;;12.52;;
21239;SDS011;10778;48.962;9.018;2022-11-14T05:48:58;20.80;;;13.70;;
21239;SDS011;10778;48.962;9.018;2022-11-14T05:51:43;23.35;;;15.10;;
21239;SDS011;10778;48.962;9.018;2022-11-14T05:54:27;28.40;;;17.75;;
21239;SDS011;10778;48.962;9.018;2022-11-14T05:57:12;24.35;;;15.98;;
21239;SDS011;10778;48.962;9.018;2022-11-14T05:59:56;23.98;;;15.75;;
21239;SDS011;10778;48.962;9.018;2022-11-14T06:02:42;27.70;;;17.05;;
21239;SDS011;10778;48.962;9.018;2022-11-14T06:05:29;23.63;;;15.35;;
21239;SDS011;10778;48.962;9.018;2022-11-14T06:08:14;26.38;;;17.50;;
21239;SDS011;10778;48.962;9.018;2022-11-14T06:11:06;24.83;;;16.45;;
21239;SDS011;10778;48.962;9.018;2022-11-14T06:13:51;25.60;;;17.33;;
21239;SDS011;10778;48.962;9.018;2022-11-14T06:16:36;25.67;;;16.60;;
21239;SDS011;10778;48.962;9.018;2022-11-14T06:19:20;22.75;;;14.40;;
21239;SDS011;10778;48.962;9.018;2022-11-14T06:22:05;21.58;;;14.23;;
21239;SDS011;10778;48.962;9.018;2022-11-14T06:24:49;21.55;;;14.63;;
21239;SDS011;10778;48.962;9.018;2022-11-14T06:27:34;23.17;;;16.27;;
21239;SDS011;10778;48.962;9.018;2022-11-14T06:30:18;22.83;;;15.10;;
21239;SDS011;10778;48.962;9.018;2022-11-14T06:33:03;23.00;;;14.68;;
21239;SDS011;10778;48.962;9.018;2022-11-14T06:35:47;21.98;;;15.10;;
21239;SDS011;10778;48.962;9.018;2022-11-14T06:38:33;22.70;;;14.68;;
21239;SDS011;10778;48.962;9.018;2022-11-14T06:41:19;24.33;;;15.57;;
21239;SDS011;10778;48.962;9.018;2022-11-14T06:44:06;24.92;;;16.33;;
21239;SDS011;10778;48.962;9.018;2022-11-14T06:46:51;23.63;;;16.58;;
21239;SDS011;10778;48.962;9.018;2022-11-14T06:49:36;23.52;;;15.32;;
21239;SDS011;10778;48.962;9.018;2022-11-14T06:52:20;21.48;;;13.32;;
21239;SDS011;10778;48.962;9.018;2022-11-14T06:55:05;20.33;;;13.65;;
21239;SDS011;10778;48.962;9.018;2022-11-14T06:57:53;19.20;;;12.85;;
21239;SDS011;10778;48.962;9.018;2022-11-14T07:00:38;17.08;;;12.35;;
21239;SDS011;10778;48.962;9.018;2022-11-14T07:03:23;16.90;;;11.90;;
21239;SDS011;10778;48.962;9.018;2022-11-14T07:06:08;14.35;;;11.13;;
21239;SDS011;10778;48.962;9.018;2022-11-14T07:08:55;14.77;;;10.70;;
21239;SDS011;10778;48.962;9.018;2022-11-14T07:11:41;15.20;;;10.98;;
21239;SDS011;10778;48.962;9.018;2022-11-14T07:14:28;13.13;;;10.32;;
21239;SDS011;10778;48.962;9.018;2022-11-14T07:17:13;14.00;;;10.05;;
21239;SDS011;10778;48.962;9.018;2022-11-14T07:19:57;12.88;;;10.23;;
21239;SDS011;10778;48.962;9.018;2022-11-14T07:22:43;14.40;;;10.35;;
21239;SDS011;10778;48.962;9.018;2022-11-14T07:25:28;16.35;;;10.40;;
21239;SDS011;10778;48.962;9.018;2022-11-14T07:28:13;15.77;;;11.10;;
21239;SDS011;10778;48.962;9.018;2022-11-14T07:30:57;14.13;;;9.98;;
21239;SDS011;10778;48.962;9.018;2022-11-14T07:33:42;15.90;;;10.77;;
21239;SDS011;10778;48.962;9.018;2022-11-14T07:36:28;17.88;;;12.00;;
21239;SDS011;10778;48.962;9.018;2022-11-14T07:39:13;26.58;;;16.52;;
21239;SDS011;10778;48.962;9.018;2022-11-14T07:41:57;28.45;;;17.33;;
21239;SDS011;10778;48.962;9.018;2022-11-14T07:44:42;24.65;;;14.45;;
21239;SDS011;10778;48.962;9.018;2022-11-14T07:47:26;22.92;;;13.75;;
21239;SDS011;10778;48.962;9.018;2022-11-14T07:50:11;20.85;;;14.18;;
21239;SDS011;10778;48.962;9.018;2022-11-14T07:52:55;17.98;;;13.10;;
21239;SDS011;10778;48.962;9.018;2022-11-14T07:55:41;25.10;;;14.07;;
21239;SDS011;10778;48.962;9.018;2022-11-14T07:58:25;20.67;;;14.02;;
21239;SDS011;10778;48.962;9.018;2022-11-14T08:01:11;21.10;;;13.20;;
21239;SDS011;10778;48.962;9.018;2022-11-14T08:03:56;18.75;;;13.10;;
21239;SDS011;10778;48.962;9.018;2022-11-14T08:06:41;19.23;;;13.43;;
21239;SDS011;10778;48.962;9.018;2022-11-14T08:09:25;17.95;;;13.02;;
21239;SDS011;10778;48.962;9.018;2022-11-14T08:12:10;18.30;;;12.52;;
21239;SDS011;10778;48.962;9.018;2022-11-14T08:14:54;17.23;;;12.50;;
21239;SDS011;10778;48.962;9.018;2022-11-14T08:17:38;16.13;;;11.65;;
21239;SDS011;10778;48.962;9.018;2022-11-14T08:20:23;15.85;;;11.23;;
21239;SDS011;10778;48.962;9.018;2022-11-14T08:23:09;17.27;;;11.25;;
21239;SDS011;10778;48.962;9.018;2022-11-14T08:25:56;16.20;;;11.25;;
21239;SDS011;10778;48.962;9.018;2022-11-14T08:28:42;14.05;;;10.18;;
21239;SDS011;10778;48.962;9.018;2022-11-14T08:31:26;13.10;;;10.20;;
21239;SDS011;10778;48.962;9.018;2022-11-14T08:34:11;14.27;;;10.27;;
21239;SDS011;10778;48.962;9.018;2022-11-14T08:36:56;16.60;;;10.98;;
21239;SDS011;10778;48.962;9.018;2022-11-14T08:39:41;16.05;;;11.40;;
21239;SDS011;10778;48.962;9.018;2022-11-14T08:42:26;15.13;;;11.35;;
21239;SDS011;10778;48.962;9.018;2022-11-14T08:45:10;18.65;;;11.93;;
21239;SDS011;10778;48.962;9.018;2022-11-14T08:47:55;17.10;;;11.98;;
21239;SDS011;10778;48.962;9.018;2022-11-14T08:50:40;22.77;;;13.65;;
21239;SDS011;10778;48.962;9.018;2022-11-14T08:53:24;18.77;;;13.18;;
21239;SDS011;10778;48.962;9.018;2022-11-14T08:56:09;18.58;;;12.95;;
21239;SDS011;10778;48.962;9.018;2022-11-14T08:58:54;17.48;;;13.05;;
21239;SDS011;10778;48.962;9.018;2022-11-14T09:01:38;18.33;;;11.57;;
21239;SDS011;10778;48.962;9.018;2022-11-14T09:04:23;17.10;;;13.30;;
21239;SDS011;10778;48.962;9.018;2022-11-14T09:07:07;20.83;;;14.32;;
21239;SDS011;10778;48.962;9.018;2022-11-14T09:09:52;21.35;;;13.73;;
21239;SDS011;10778;48.962;9.018;2022-11-14T09:12:36;22.05;;;15.00;;
21239;SDS011;10778;48.962;9.018;2022-11-14T09:15:21;21.30;;;14.55;;
21239;SDS011;10778;48.962;9.018;2022-11-14T09:18:05;20.33;;;14.32;;
21239;SDS011;10778;48.962;9.018;2022-11-14T09:20:50;20.42;;;14.70;;
21239;SDS011;10778;48.962;9.018;2022-11-14T09:23:34;20.52;;;14.30;;
21239;SDS011;10778;48.962;9.018;2022-11-14T09:26:19;22.75;;;15.18;;
21239;SDS011;10778;48.962;9.018;2022-11-14T09:29:03;23.77;;;15.85;;
21239;SDS011;10778;48.962;9.018;2022-11-14T09:31:52;23.77;;;16.27;;
21239;SDS011;10778;48.962;9.018;2022-11-14T09:34:38;26.48;;;16.05;;
21239;SDS011;10778;48.962;9.018;2022-11-14T09:37:26;23.92;;;15.43;;
21239;SDS011;10778;48.962;9.018;2022-11-14T09:40:11;25.55;;;16.55;;
21239;SDS011;10778;48.962;9.018;2022-11-14T09:45:54;22.13;;;14.75;;
21239;SDS011;10778;48.962;9.018;2022-11-14T09:48:39;22.83;;;14.90;;
21239;SDS011;10778;48.962;9.018;2022-11-14T09:51:24;21.80;;;14.80;;
21239;SDS011;10778;48.962;9.018;2022-11-14T09:57:12;23.13;;;15.10;;
21239;SDS011;10778;48.962;9.018;2022-11-14T09:59:59;23.38;;;15.25;;
21239;SDS011;10778;48.962;9.018;2022-11-14T10:09:16;29.48;;;16.52;;
21239;SDS011;10778;48.962;9.018;2022-11-14T10:12:16;25.35;;;16.73;;
21239;SDS011;10778;48.962;9.018;2022-11-14T10:15:17;24.90;;;15.55;;
21239;SDS011;10778;48.962;9.018;2022-11-14T10:18:30;23.00;;;15.45;;
21239;SDS011;10778;48.962;9.018;2022-11-14T10:27:39;23.05;;;14.82;;
21239;SDS011;10778;48.962;9.018;2022-11-14T10:30:30;20.40;;;13.32;;
21239;SDS011;10778;48.962;9.018;2022-11-14T10:36:43;23.73;;;15.77;;
21239;SDS011;10778;48.962;9.018;2022-11-14T10:39:47;28.05;;;18.83;;
21239;SDS011;10778;48.962;9.018;2022-11-14T10:42:35;23.00;;;16.35;;
21239;SDS011;10778;48.962;9.018;2022-11-14T10:46:06;16.60;;;12.57;;
21239;SDS011;10778;48.962;9.018;2022-11-14T10:48:51;17.50;;;11.93;;
21239;SDS011;10778;48.962;9.018;2022-11-14T10:51:37;16.27;;;11.20;;
21239;SDS011;10778;48.962;9.018;2022-11-14T10:54:34;14.05;;;10.27;;
21239;SDS011;10778;48.962;9.018;2022-11-14T10:57:26;14.50;;;10.40;;
21239;SDS011;10778;48.962;9.018;2022-11-14T11:00:12;14.98;;;10.68;;
21239;SDS011;10778;48.962;9.018;2022-11-14T11:03:06;16.13;;;11.27;;
21239;SDS011;10778;48.962;9.018;2022-11-14T11:05:51;17.27;;;11.45;;
21239;SDS011;10778;48.962;9.018;2022-11-14T11:08:43;15.25;;;10.10;;
21239;SDS011;10778;48.962;9.018;2022-11-14T11:11:51;14.50;;;10.80;;
21239;SDS011;10778;48.962;9.018;2022-11-14T11:14:40;16.92;;;10.30;;
21239;SDS011;10778;48.962;9.018;2022-11-14T11:17:26;16.02;;;10.20;;
21239;SDS011;10778;48.962;9.018;2022-11-14T11:23:19;16.65;;;10.77;;
21239;SDS011;10778;48.962;9.018;2022-11-14T11:26:14;15.85;;;10.65;;
21239;SDS011;10778;48.962;9.018;2022-11-14T11:31:54;14.52;;;10.88;;
21239;SDS011;10778;48.962;9.018;2022-11-14T11:34:41;17.33;;;11.40;;
21239;SDS011;10778;48.962;9.018;2022-11-14T11:37:30;17.10;;;11.10;;
21239;SDS011;10778;48.962;9.018;2022-11-14T11:40:21;12.40;;;8.55;;
21239;SDS011;10778;48.962;9.018;2022-11-14T11:46:21;4.13;;;3.00;;
21239;SDS011;10778;48.962;9.018;2022-11-14T11:49:10;5.72;;;4.13;;
21239;SDS011;10778;48.962;9.018;2022-11-14T11:52:04;8.18;;;5.60;;
21239;SDS011;10778;48.962;9.018;2022-11-14T11:55:12;10.57;;;6.95;;
21239;SDS011;10778;48.962;9.018;2022-11-14T11:58:01;8.23;;;6.15;;
21239;SDS011;10778;48.962;9.018;2022-11-14T12:00:54;7.75;;;5.53;;
21239;SDS011;10778;48.962;9.018;2022-11-14T12:03:41;11.52;;;7.18;;
21239;SDS011;10778;48.962;9.018;2022-11-14T12:06:30;10.40;;;6.97;;
21239;SDS011;10778;48.962;9.018;2022-11-14T12:09:32;21.83;;;16.38;;
21239;SDS011;10778;48.962;9.018;2022-11-14T12:13:26;19.23;;;13.95;;
21239;SDS011;10778;48.962;9.018;2022-11-14T12:16:02;4.28;;;2.58;;
21239;SDS011;10778;48.962;9.018;2022-11-14T12:25:17;3.63;;;2.05;;
21239;SDS011;10778;48.962;9.018;2022-11-14T12:28:09;3.50;;;1.63;;
21239;SDS011;10778;48.962;9.018;2022-11-14T12:30:56;2.50;;;1.48;;
21239;SDS011;10778;48.962;9.018;2022-11-14T12:33:46;1.88;;;1.42;;
21239;SDS011;10778;48.962;9.018;2022-11-14T12:36:42;2.72;;;1.63;;
21239;SDS011;10778;48.962;9.018;2022-11-14T12:39:29;2.53;;;1.65;;
21239;SDS011;10778;48.962;9.018;2022-11-14T12:42:17;3.17;;;1.70;;
21239;SDS011;10778;48.962;9.018;2022-11-14T12:45:21;2.50;;;1.70;;
21239;SDS011;10778;48.962;9.018;2022-11-14T12:51:55;3.00;;;1.65;;
21239;SDS011;10778;48.962;9.018;2022-11-14T13:03:40;3.75;;;1.70;;
21239;SDS011;10778;48.962;9.018;2022-11-14T13:09:38;3.20;;;1.58;;
21239;SDS011;10778;48.962;9.018;2022-11-14T13:12:38;2.95;;;2.03;;
21239;SDS011;10778;48.962;9.018;2022-11-14T13:15:56;3.47;;;1.70;;
21239;SDS011;10778;48.962;9.018;2022-11-14T13:19:10;3.63;;;2.00;;
21239;SDS011;10778;48.962;9.018;2022-11-14T13:22:31;3.78;;;2.00;;
21239;SDS011;10778;48.962;9.018;2022-11-14T13:25:22;2.25;;;1.33;;
21239;SDS011;10778;48.962;9.018;2022-11-14T13:31:23;3.03;;;1.65;;
21239;SDS011;10778;48.962;9.018;2022-11-14T13:34:45;4.10;;;1.90;;
21239;SDS011;10778;48.962;9.018;2022-11-14T13:37:45;4.43;;;2.80;;
21239;SDS011;10778;48.962;9.018;2022-11-14T13:53:00;4.88;;;2.10;;
21239;SDS011;10778;48.962;9.018;2022-11-14T14:10:53;5.38;;;2.40;;
21239;SDS011;10778;48.962;9.018;2022-11-14T14:16:44;6.45;;;3.10;;
21239;SDS011;10778;48.962;9.018;2022-11-14T14:19:40;5.63;;;3.20;;
21239;SDS011;10778;48.962;9.018;2022-11-14T14:25:42;4.13;;;2.00;;
21239;SDS011;10778;48.962;9.018;2022-11-14T14:31:43;4.22;;;1.95;;
21239;SDS011;10778;48.962;9.018;2022-11-14T14:34:28;3.38;;;2.10;;
21239;SDS011;10778;48.962;9.018;2022-11-14T14:37:22;3.03;;;1.85;;
21239;SDS011;10778;48.962;9.018;2022-11-14T14:40:20;3.85;;;2.15;;
21239;SDS011;10778;48.962;9.018;2022-11-14T14:46:09;4.18;;;1.98;;
21239;SDS011;10778;48.962;9.018;2022-11-14T14:48:54;4.57;;;2.33;;
21239;SDS011;10778;48.962;9.018;2022-11-14T14:51:40;4.60;;;1.80;;
21239;SDS011;10778;48.962;9.018;2022-11-14T14:54:26;4.80;;;2.33;;
21239;SDS011;10778;48.962;9.018;2022-11-14T14:57:16;8.65;;;4.03;;
21239;SDS011;10778;48.962;9.018;2022-11-14T15:03:09;5.25;;;2.05;;
21239;SDS011;10778;48.962;9.018;2022-11-14T15:05:57;4.38;;;2.13;;
21239;SDS011;10778;48.962;9.018;2022-11-14T15:08:43;2.95;;;2.05;;
21239;SDS011;10778;48.962;9.018;2022-11-14T15:11:29;4.28;;;2.00;;
21239;SDS011;10778;48.962;9.018;2022-11-14T15:14:28;6.45;;;2.80;;
21239;SDS011;10778;48.962;9.018;2022-11-14T15:17:15;5.38;;;2.63;;
21239;SDS011;10778;48.962;9.018;2022-11-14T15:20:00;6.20;;;3.45;;
21239;SDS011;10778;48.962;9.018;2022-11-14T15:23:05;7.82;;;5.15;;
21239;SDS011;10778;48.962;9.018;2022-11-14T15:26:02;7.90;;;7.10;;
21239;SDS011;10778;48.962;9.018;2022-11-14T15:28:49;5.93;;;2.75;;
21239;SDS011;10778;48.962;9.018;2022-11-14T15:31:34;7.25;;;2.80;;
21239;SDS011;10778;48.962;9.018;2022-11-14T15:34:29;4.38;;;2.20;;
21239;SDS011;10778;48.962;9.018;2022-11-14T15:40:15;7.18;;;2.47;;
21239;SDS011;10778;48.962;9.018;2022-11-14T15:43:00;3.20;;;2.67;;
21239;SDS011;10778;48.962;9.018;2022-11-14T15:46:33;4.25;;;2.33;;
21239;SDS011;10778;48.962;9.018;2022-11-14T15:49:21;3.70;;;2.20;;
21239;SDS011;10778;48.962;9.018;2022-11-14T15:52:18;3.70;;;2.50;;
21239;SDS011;10778;48.962;9.018;2022-11-14T15:55:09;3.40;;;2.22;;
21239;SDS011;10778;48.962;9.018;2022-11-14T15:57:57;6.32;;;2.80;;
21239;SDS011;10778;48.962;9.018;2022-11-14T16:00:51;3.95;;;2.58;;
21239;SDS011;10778;48.962;9.018;2022-11-14T16:03:36;5.07;;;2.75;;
21239;SDS011;10778;48.962;9.018;2022-11-14T16:06:21;4.45;;;2.63;;
21239;SDS011;10778;48.962;9.018;2022-11-14T16:09:07;4.45;;;3.10;;
21239;SDS011;10778;48.962;9.018;2022-11-14T16:11:57;7.97;;;4.63;;
21239;SDS011;10778;48.962;9.018;2022-11-14T16:14:41;5.55;;;2.97;;
21239;SDS011;10778;48.962;9.018;2022-11-14T16:17:26;4.72;;;2.80;;
21239;SDS011;10778;48.962;9.018;2022-11-14T16:20:15;5.40;;;2.90;;
21239;SDS011;10778;48.962;9.018;2022-11-14T16:23:05;5.72;;;3.00;;
21239;SDS011;10778;48.962;9.018;2022-11-14T16:25:49;6.38;;;3.80;;
21239;SDS011;10778;48.962;9.018;2022-11-14T16:28:34;7.85;;;4.30;;
21239;SDS011;10778;48.962;9.018;2022-11-14T16:31:18;5.30;;;3.67;;
21239;SDS011;10778;48.962;9.018;2022-11-14T16:34:03;6.25;;;3.72;;
21239;SDS011;10778;48.962;9.018;2022-11-14T16:36:48;12.10;;;5.43;;
21239;SDS011;10778;48.962;9.018;2022-11-14T16:39:42;11.35;;;5.82;;
21239;SDS011;10778;48.962;9.018;2022-11-14T16:42:27;8.40;;;5.05;;
21239;SDS011;10778;48.962;9.018;2022-11-14T16:45:12;8.07;;;4.35;;
21239;SDS011;10778;48.962;9.018;2022-11-14T16:47:58;14.23;;;6.95;;
21239;SDS011;10778;48.962;9.018;2022-11-14T16:50:42;8.32;;;5.15;;
21239;SDS011;10778;48.962;9.018;2022-11-14T16:53:38;8.68;;;5.10;;
21239;SDS011;10778;48.962;9.018;2022-11-14T16:56:33;8.52;;;4.68;;
21239;SDS011;10778;48.962;9.018;2022-11-14T16:59:18;8.50;;;4.63;;
21239;SDS011;10778;48.962;9.018;2022-11-14T17:02:03;5.72;;;4.13;;
21239;SDS011;10778;48.962;9.018;2022-11-14T17:04:47;7.03;;;4.53;;
21239;SDS011;10778;48.962;9.018;2022-11-14T17:07:32;6.18;;;4.30;;
21239;SDS011;10778;48.962;9.018;2022-11-14T17:10:16;8.00;;;4.80;;
21239;SDS011;10778;48.962;9.018;2022-11-14T17:13:01;6.78;;;4.05;;
21239;SDS011;10778;48.962;9.018;2022-11-14T17:15:46;6.20;;;3.67;;
21239;SDS011;10778;48.962;9.018;2022-11-14T17:18:30;4.88;;;3.63;;
21239;SDS011;10778;48.962;9.018;2022-11-14T17:21:15;5.43;;;4.03;;
21239;SDS011;10778;48.962;9.018;2022-11-14T17:24:00;7.13;;;4.57;;
21239;SDS011;10778;48.962;9.018;2022-11-14T17:26:45;6.60;;;4.70;;
21239;SDS011;10778;48.962;9.018;2022-11-14T17:29:29;8.02;;;5.95;;
21239;SDS011;10778;48.962;9.018;2022-11-14T17:32:14;9.43;;;5.90;;
21239;SDS011;10778;48.962;9.018;2022-11-14T17:34:59;7.63;;;5.18;;
21239;SDS011;10778;48.962;9.018;2022-11-14T17:37:49;6.90;;;4.43;;
21239;SDS011;10778;48.962;9.018;2022-11-14T17:40:35;7.93;;;4.72;;
21239;SDS011;10778;48.962;9.018;2022-11-14T17:43:20;6.65;;;5.15;;
21239;SDS011;10778;48.962;9.018;2022-11-14T17:46:04;9.85;;;6.13;;
21239;SDS011;10778;48.962;9.018;2022-11-14T17:48:50;9.52;;;7.63;;
21239;SDS011;10778;48.962;9.018;2022-11-14T17:51:36;9.00;;;6.30;;
21239;SDS011;10778;48.962;9.018;2022-11-14T17:54:21;8.77;;;5.75;;
21239;SDS011;10778;48.962;9.018;2022-11-14T17:57:06;9.85;;;5.53;;
21239;SDS011;10778;48.962;9.018;2022-11-14T17:59:51;4.90;;;4.05;;
21239;SDS011;10778;48.962;9.018;2022-11-14T18:02:36;6.28;;;4.70;;
21239;SDS011;10778;48.962;9.018;2022-11-14T18:05:20;8.90;;;4.68;;
21239;SDS011;10778;48.962;9.018;2022-11-14T18:08:07;6.32;;;4.30;;
21239;SDS011;10778;48.962;9.018;2022-11-14T18:10:51;9.70;;;5.88;;
21239;SDS011;10778;48.962;9.018;2022-11-14T18:13:37;9.52;;;6.40;;